sensor_id;sensor_type;location;lat;lon;timestamp;pressure;altitude;pressure_sealevel;temperature;humidity
62725;BME280;49026;52.600;4.694;2023-03-14T00:02:08;98716.91;;;7.95;77.92
62725;BME280;49026;52.600;4.694;2023-03-14T00:04:33;98733.41;;;7.96;78.94
62725;BME280;49026;52.600;4.694;2023-03-14T00:06:58;98724.84;;;7.94;77.91
62725;BME280;49026;52.600;4.694;2023-03-14T00:09:24;98731.00;;;7.93;78.70
62725;BME280;49026;52.600;4.694;2023-03-14T00:11:52;98716.25;;;7.92;77.83
62725;BME280;49026;52.600;4.694;2023-03-14T00:14:18;98708.41;;;7.92;78.82
62725;BME280;49026;52.600;4.694;2023-03-14T00:16:45;98706.63;;;7.92;78.22
62725;BME280;49026;52.600;4.694;2023-03-14T00:19:11;98711.03;;;7.92;78.52
62725;BME280;49026;52.600;4.694;2023-03-14T00:21:36;98702.41;;;7.90;78.78
62725;BME280;49026;52.600;4.694;2023-03-14T00:24:01;98707.84;;;7.87;78.44
62725;BME280;49026;52.600;4.694;2023-03-14T00:26:27;98699.91;;;7.88;77.89
62725;BME280;49026;52.600;4.694;2023-03-14T00:28:53;98696.91;;;7.94;78.85
62725;BME280;49026;52.600;4.694;2023-03-14T00:31:18;98706.03;;;8.02;78.86
62725;BME280;49026;52.600;4.694;2023-03-14T00:33:44;98698.63;;;8.08;79.99
62725;BME280;49026;52.600;4.694;2023-03-14T00:36:13;98702.75;;;8.12;79.41
62725;BME280;49026;52.600;4.694;2023-03-14T00:38:40;98679.94;;;8.14;78.79
62725;BME280;49026;52.600;4.694;2023-03-14T00:41:07;98703.38;;;8.16;79.35
62725;BME280;49026;52.600;4.694;2023-03-14T00:43:33;98695.63;;;8.14;79.19
62725;BME280;49026;52.600;4.694;2023-03-14T00:45:59;98700.03;;;8.14;79.18
62725;BME280;49026;52.600;4.694;2023-03-14T00:48:24;98698.34;;;8.13;79.22
62725;BME280;49026;52.600;4.694;2023-03-14T00:50:50;98715.91;;;8.11;79.52
62725;BME280;49026;52.600;4.694;2023-03-14T00:53:16;98707.13;;;8.12;79.54
62725;BME280;49026;52.600;4.694;2023-03-14T00:55:43;98708.72;;;8.14;79.24
62725;BME280;49026;52.600;4.694;2023-03-14T00:58:10;98700.84;;;8.14;79.71
62725;BME280;49026;52.600;4.694;2023-03-14T01:00:35;98690.41;;;8.14;80.82
62725;BME280;49026;52.600;4.694;2023-03-14T01:03:01;98677.31;;;8.14;79.71
62725;BME280;49026;52.600;4.694;2023-03-14T01:05:26;98689.56;;;8.14;79.54
62725;BME280;49026;52.600;4.694;2023-03-14T01:07:52;98675.53;;;8.15;79.62
62725;BME280;49026;52.600;4.694;2023-03-14T01:10:17;98687.78;;;8.14;80.06
62725;BME280;49026;52.600;4.694;2023-03-14T01:12:43;98689.66;;;8.12;80.40
62725;BME280;49026;52.600;4.694;2023-03-14T01:15:11;98685.25;;;8.13;80.17
62725;BME280;49026;52.600;4.694;2023-03-14T01:17:37;98702.84;;;8.11;79.86
62725;BME280;49026;52.600;4.694;2023-03-14T01:20:03;98699.38;;;8.10;80.12
62725;BME280;49026;52.600;4.694;2023-03-14T01:22:30;98692.47;;;8.09;80.34
62725;BME280;49026;52.600;4.694;2023-03-14T01:25:00;98698.63;;;8.08;80.55
62725;BME280;49026;52.600;4.694;2023-03-14T01:27:25;98699.59;;;8.07;80.28
62725;BME280;49026;52.600;4.694;2023-03-14T01:29:50;98685.78;;;8.05;80.41
62725;BME280;49026;52.600;4.694;2023-03-14T01:32:19;98699.78;;;8.04;80.66
62725;BME280;49026;52.600;4.694;2023-03-14T01:34:44;98697.16;;;8.04;80.51
62725;BME280;49026;52.600;4.694;2023-03-14T01:37:09;98689.50;;;8.01;81.08
62725;BME280;49026;52.600;4.694;2023-03-14T01:39:37;98674.88;;;7.98;80.42
62725;BME280;49026;52.600;4.694;2023-03-14T01:42:06;98690.56;;;7.98;81.05
62725;BME280;49026;52.600;4.694;2023-03-14T01:44:55;98697.63;;;7.96;80.85
62725;BME280;49026;52.600;4.694;2023-03-14T01:47:22;98686.53;;;7.93;80.65
62725;BME280;49026;52.600;4.694;2023-03-14T01:49:51;98676.91;;;7.93;80.26
62725;BME280;49026;52.600;4.694;2023-03-14T01:52:30;98697.00;;;7.93;80.44
62725;BME280;49026;52.600;4.694;2023-03-14T01:55:03;98693.66;;;7.91;80.99
62725;BME280;49026;52.600;4.694;2023-03-14T01:57:33;98693.75;;;7.89;80.26
62725;BME280;49026;52.600;4.694;2023-03-14T02:00:07;98693.19;;;7.84;81.14
62725;BME280;49026;52.600;4.694;2023-03-14T02:02:37;98691.81;;;7.78;80.11
62725;BME280;49026;52.600;4.694;2023-03-14T02:05:05;98684.34;;;7.72;80.55
62725;BME280;49026;52.600;4.694;2023-03-14T02:07:35;98679.31;;;7.69;80.47
62725;BME280;49026;52.600;4.694;2023-03-14T02:10:03;98682.94;;;7.67;80.53
62725;BME280;49026;52.600;4.694;2023-03-14T02:12:29;98685.56;;;7.67;80.92
62725;BME280;49026;52.600;4.694;2023-03-14T02:14:54;98689.94;;;7.66;82.34
62725;BME280;49026;52.600;4.694;2023-03-14T02:17:20;98670.72;;;7.67;81.67
62725;BME280;49026;52.600;4.694;2023-03-14T02:22:18;98669.69;;;7.70;80.45
62725;BME280;49026;52.600;4.694;2023-03-14T02:27:17;98679.13;;;7.72;80.54
62725;BME280;49026;52.600;4.694;2023-03-14T02:29:50;98671.19;;;7.74;80.38
62725;BME280;49026;52.600;4.694;2023-03-14T02:32:17;98681.63;;;7.74;81.32
62725;BME280;49026;52.600;4.694;2023-03-14T02:34:49;98666.78;;;7.74;80.16
62725;BME280;49026;52.600;4.694;2023-03-14T02:37:17;98670.31;;;7.73;81.24
62725;BME280;49026;52.600;4.694;2023-03-14T02:39:44;98666.16;;;7.71;80.94
62725;BME280;49026;52.600;4.694;2023-03-14T02:42:11;98665.31;;;7.70;80.53
62725;BME280;49026;52.600;4.694;2023-03-14T02:44:48;98655.69;;;7.71;81.37
62725;BME280;49026;52.600;4.694;2023-03-14T02:47:15;98651.28;;;7.71;80.71
62725;BME280;49026;52.600;4.694;2023-03-14T02:49:41;98652.97;;;7.72;80.62
62725;BME280;49026;52.600;4.694;2023-03-14T02:52:09;98647.75;;;7.72;80.58
62725;BME280;49026;52.600;4.694;2023-03-14T02:54:35;98633.72;;;7.73;80.62
62725;BME280;49026;52.600;4.694;2023-03-14T02:57:00;98647.56;;;7.75;80.88
62725;BME280;49026;52.600;4.694;2023-03-14T02:59:28;98639.53;;;7.78;80.97
62725;BME280;49026;52.600;4.694;2023-03-14T03:01:55;98642.88;;;7.81;81.00
62725;BME280;49026;52.600;4.694;2023-03-14T03:04:22;98634.84;;;7.84;81.64
62725;BME280;49026;52.600;4.694;2023-03-14T03:06:48;98640.81;;;7.86;81.84
62725;BME280;49026;52.600;4.694;2023-03-14T03:09:13;98627.63;;;7.87;81.74
62725;BME280;49026;52.600;4.694;2023-03-14T03:11:41;98632.75;;;7.89;82.29
62725;BME280;49026;52.600;4.694;2023-03-14T03:14:06;98632.56;;;7.92;81.88
62725;BME280;49026;52.600;4.694;2023-03-14T03:16:31;98627.22;;;7.93;81.36
62725;BME280;49026;52.600;4.694;2023-03-14T03:18:59;98632.34;;;7.95;81.13
62725;BME280;49026;52.600;4.694;2023-03-14T03:21:24;98628.63;;;7.99;82.04
62725;BME280;49026;52.600;4.694;2023-03-14T03:23:49;98644.94;;;8.03;81.67
62725;BME280;49026;52.600;4.694;2023-03-14T03:26:15;98630.06;;;8.03;81.92
62725;BME280;49026;52.600;4.694;2023-03-14T03:28:40;98637.00;;;8.04;82.24
62725;BME280;49026;52.600;4.694;2023-03-14T03:31:07;98629.88;;;8.06;81.79
62725;BME280;49026;52.600;4.694;2023-03-14T03:33:33;98614.09;;;8.08;81.55
62725;BME280;49026;52.600;4.694;2023-03-14T03:35:58;98618.50;;;8.07;81.24
62725;BME280;49026;52.600;4.694;2023-03-14T03:38:26;98596.19;;;8.02;81.00
62725;BME280;49026;52.600;4.694;2023-03-14T03:40:54;98641.97;;;7.94;81.47
62725;BME280;49026;52.600;4.694;2023-03-14T03:43:21;98617.28;;;7.86;81.71
62725;BME280;49026;52.600;4.694;2023-03-14T03:45:46;98623.41;;;7.72;81.61
62725;BME280;49026;52.600;4.694;2023-03-14T03:48:12;98621.25;;;7.64;82.35
62725;BME280;49026;52.600;4.694;2023-03-14T03:50:44;98618.19;;;7.57;82.37
62725;BME280;49026;52.600;4.694;2023-03-14T03:53:09;98641.16;;;7.52;82.45
62725;BME280;49026;52.600;4.694;2023-03-14T03:55:34;98644.25;;;7.45;82.56
62725;BME280;49026;52.600;4.694;2023-03-14T03:58:02;98629.91;;;7.37;84.25
62725;BME280;49026;52.600;4.694;2023-03-14T04:00:27;98631.88;;;7.34;83.17
62725;BME280;49026;52.600;4.694;2023-03-14T04:02:55;98626.81;;;7.31;84.03
62725;BME280;49026;52.600;4.694;2023-03-14T04:05:20;98626.00;;;7.30;83.80
62725;BME280;49026;52.600;4.694;2023-03-14T04:07:46;98627.84;;;7.28;85.54
62725;BME280;49026;52.600;4.694;2023-03-14T04:10:11;98646.91;;;7.30;85.07
62725;BME280;49026;52.600;4.694;2023-03-14T04:12:36;98645.13;;;7.31;84.15
62725;BME280;49026;52.600;4.694;2023-03-14T04:15:01;98633.75;;;7.32;84.09
62725;BME280;49026;52.600;4.694;2023-03-14T04:17:27;98626.00;;;7.30;84.69
62725;BME280;49026;52.600;4.694;2023-03-14T04:19:54;98641.75;;;7.29;85.76
62725;BME280;49026;52.600;4.694;2023-03-14T04:22:22;98635.69;;;7.28;85.13
62725;BME280;49026;52.600;4.694;2023-03-14T04:24:47;98633.06;;;7.28;85.68
62725;BME280;49026;52.600;4.694;2023-03-14T04:27:15;98642.50;;;7.31;84.55
62725;BME280;49026;52.600;4.694;2023-03-14T04:29:41;98632.22;;;7.28;84.21
62725;BME280;49026;52.600;4.694;2023-03-14T04:32:07;98634.00;;;7.27;84.64
62725;BME280;49026;52.600;4.694;2023-03-14T04:34:34;98641.84;;;7.27;85.33
62725;BME280;49026;52.600;4.694;2023-03-14T04:37:02;98644.56;;;7.26;85.47
62725;BME280;49026;52.600;4.694;2023-03-14T04:39:27;98644.56;;;7.26;85.33
62725;BME280;49026;52.600;4.694;2023-03-14T04:41:53;98642.88;;;7.24;86.20
62725;BME280;49026;52.600;4.694;2023-03-14T04:44:19;98643.72;;;7.25;84.73
62725;BME280;49026;52.600;4.694;2023-03-14T04:46:44;98657.81;;;7.22;84.97
62725;BME280;49026;52.600;4.694;2023-03-14T04:49:09;98638.69;;;7.22;85.16
62725;BME280;49026;52.600;4.694;2023-03-14T04:51:35;98643.91;;;7.22;84.67
62725;BME280;49026;52.600;4.694;2023-03-14T04:54:00;98651.84;;;7.20;85.15
62725;BME280;49026;52.600;4.694;2023-03-14T04:56:25;98663.31;;;7.18;84.76
62725;BME280;49026;52.600;4.694;2023-03-14T04:58:52;98661.63;;;7.17;85.89
62725;BME280;49026;52.600;4.694;2023-03-14T05:01:18;98672.19;;;7.15;85.90
62725;BME280;49026;52.600;4.694;2023-03-14T05:03:43;98667.78;;;7.16;86.17
62725;BME280;49026;52.600;4.694;2023-03-14T05:06:10;98682.72;;;7.14;86.02
62725;BME280;49026;52.600;4.694;2023-03-14T05:08:36;98696.69;;;7.13;87.16
62725;BME280;49026;52.600;4.694;2023-03-14T05:11:01;98716.00;;;6.96;86.80
62725;BME280;49026;52.600;4.694;2023-03-14T05:13:28;98712.50;;;6.81;86.81
62725;BME280;49026;52.600;4.694;2023-03-14T05:15:53;98711.53;;;6.67;87.16
62725;BME280;49026;52.600;4.694;2023-03-14T05:18:20;98726.22;;;6.54;87.12
62725;BME280;49026;52.600;4.694;2023-03-14T05:20:48;98726.78;;;6.45;86.85
62725;BME280;49026;52.600;4.694;2023-03-14T05:23:17;98727.19;;;6.37;87.20
62725;BME280;49026;52.600;4.694;2023-03-14T05:25:43;98738.91;;;6.30;86.73
62725;BME280;49026;52.600;4.694;2023-03-14T05:28:11;98737.22;;;6.29;87.65
62725;BME280;49026;52.600;4.694;2023-03-14T05:30:38;98748.06;;;6.21;87.24
62725;BME280;49026;52.600;4.694;2023-03-14T05:33:03;98763.13;;;6.16;87.29
62725;BME280;49026;52.600;4.694;2023-03-14T05:35:29;98769.63;;;6.09;87.50
62725;BME280;49026;52.600;4.694;2023-03-14T05:37:56;98753.38;;;6.04;87.81
62725;BME280;49026;52.600;4.694;2023-03-14T05:40:22;98777.16;;;5.98;87.74
62725;BME280;49026;52.600;4.694;2023-03-14T05:42:47;98786.22;;;5.90;87.77
62725;BME280;49026;52.600;4.694;2023-03-14T05:45:12;98790.00;;;5.85;87.65
62725;BME280;49026;52.600;4.694;2023-03-14T05:47:38;98800.69;;;5.80;87.86
62725;BME280;49026;52.600;4.694;2023-03-14T05:50:03;98803.59;;;5.74;87.97
62725;BME280;49026;52.600;4.694;2023-03-14T05:52:28;98805.59;;;5.69;87.99
62725;BME280;49026;52.600;4.694;2023-03-14T05:54:54;98819.75;;;5.65;87.70
62725;BME280;49026;52.600;4.694;2023-03-14T05:57:19;98828.53;;;5.62;87.83
62725;BME280;49026;52.600;4.694;2023-03-14T05:59:47;98835.69;;;5.59;87.69
62725;BME280;49026;52.600;4.694;2023-03-14T06:02:12;98840.38;;;5.52;87.66
62725;BME280;49026;52.600;4.694;2023-03-14T06:04:37;98839.84;;;5.45;87.99
62725;BME280;49026;52.600;4.694;2023-03-14T06:07:02;98844.44;;;5.40;87.32
62725;BME280;49026;52.600;4.694;2023-03-14T06:09:30;98852.56;;;5.34;87.77
62725;BME280;49026;52.600;4.694;2023-03-14T06:11:55;98857.16;;;5.29;87.27
62725;BME280;49026;52.600;4.694;2023-03-14T06:14:20;98861.75;;;5.24;87.44
62725;BME280;49026;52.600;4.694;2023-03-14T06:16:46;98870.66;;;5.19;87.77
62725;BME280;49026;52.600;4.694;2023-03-14T06:19:14;98876.63;;;5.22;87.50
62725;BME280;49026;52.600;4.694;2023-03-14T06:21:39;98889.78;;;5.18;87.55
62725;BME280;49026;52.600;4.694;2023-03-14T06:24:07;98894.31;;;5.15;87.72
62725;BME280;49026;52.600;4.694;2023-03-14T06:26:32;98908.22;;;5.14;87.73
62725;BME280;49026;52.600;4.694;2023-03-14T06:29:00;98924.69;;;5.14;88.14
62725;BME280;49026;52.600;4.694;2023-03-14T06:31:32;98938.78;;;5.10;88.05
62725;BME280;49026;52.600;4.694;2023-03-14T06:33:57;98951.66;;;4.94;87.75
62725;BME280;49026;52.600;4.694;2023-03-14T06:36:23;98946.34;;;4.78;87.57
62725;BME280;49026;52.600;4.694;2023-03-14T06:38:48;98954.63;;;4.68;87.68
62725;BME280;49026;52.600;4.694;2023-03-14T06:41:17;98965.41;;;4.60;87.99
62725;BME280;49026;52.600;4.694;2023-03-14T06:43:42;98982.28;;;4.51;88.00
62725;BME280;49026;52.600;4.694;2023-03-14T06:46:10;99006.28;;;4.37;87.49
62725;BME280;49026;52.600;4.694;2023-03-14T06:48:38;99010.22;;;4.27;87.72
62725;BME280;49026;52.600;4.694;2023-03-14T06:51:03;99017.44;;;4.20;87.96
62725;BME280;49026;52.600;4.694;2023-03-14T06:53:28;99016.78;;;4.15;87.87
62725;BME280;49026;52.600;4.694;2023-03-14T06:55:56;99028.31;;;4.10;87.92
62725;BME280;49026;52.600;4.694;2023-03-14T06:58:21;99048.50;;;4.03;87.94
62725;BME280;49026;52.600;4.694;2023-03-14T07:00:46;99056.63;;;3.95;87.58
62725;BME280;49026;52.600;4.694;2023-03-14T07:03:15;99073.38;;;3.88;88.57
62725;BME280;49026;52.600;4.694;2023-03-14T07:05:40;99088.31;;;3.83;88.05
62725;BME280;49026;52.600;4.694;2023-03-14T07:08:09;99098.81;;;3.80;87.71
62725;BME280;49026;52.600;4.694;2023-03-14T07:10:37;99111.94;;;3.77;88.19
62725;BME280;49026;52.600;4.694;2023-03-14T07:13:02;99124.91;;;3.77;88.09
62725;BME280;49026;52.600;4.694;2023-03-14T07:15:27;99132.72;;;3.77;88.07
62725;BME280;49026;52.600;4.694;2023-03-14T07:17:53;99135.31;;;3.77;87.73
62725;BME280;49026;52.600;4.694;2023-03-14T07:20:20;99157.91;;;3.75;87.73
62725;BME280;49026;52.600;4.694;2023-03-14T07:22:49;99161.34;;;3.75;87.49
62725;BME280;49026;52.600;4.694;2023-03-14T07:25:14;99176.88;;;3.77;87.36
62725;BME280;49026;52.600;4.694;2023-03-14T07:27:40;99186.50;;;3.75;88.03
62725;BME280;49026;52.600;4.694;2023-03-14T07:30:08;99186.44;;;3.76;87.46
62725;BME280;49026;52.600;4.694;2023-03-14T07:32:35;99195.00;;;3.78;87.22
62725;BME280;49026;52.600;4.694;2023-03-14T07:35:03;99208.06;;;3.77;87.48
62725;BME280;49026;52.600;4.694;2023-03-14T07:37:30;99213.25;;;3.77;87.52
62725;BME280;49026;52.600;4.694;2023-03-14T07:40:01;99228.72;;;3.80;87.88
62725;BME280;49026;52.600;4.694;2023-03-14T07:42:26;99252.00;;;3.83;87.95
62725;BME280;49026;52.600;4.694;2023-03-14T07:44:51;99258.78;;;3.87;88.52
62725;BME280;49026;52.600;4.694;2023-03-14T07:47:16;99274.19;;;3.92;88.22
62725;BME280;49026;52.600;4.694;2023-03-14T07:49:42;99275.94;;;3.91;88.35
62725;BME280;49026;52.600;4.694;2023-03-14T07:52:09;99277.69;;;3.90;88.97
62725;BME280;49026;52.600;4.694;2023-03-14T07:54:34;99296.69;;;3.93;88.43
62725;BME280;49026;52.600;4.694;2023-03-14T07:57:00;99306.00;;;3.98;88.65
62725;BME280;49026;52.600;4.694;2023-03-14T07:59:26;99315.09;;;4.10;88.71
62725;BME280;49026;52.600;4.694;2023-03-14T08:01:54;99322.53;;;4.19;88.51
62725;BME280;49026;52.600;4.694;2023-03-14T08:04:19;99323.88;;;4.30;88.54
62725;BME280;49026;52.600;4.694;2023-03-14T08:06:45;99326.97;;;4.39;88.48
62725;BME280;49026;52.600;4.694;2023-03-14T08:09:12;99340.50;;;4.48;88.48
62725;BME280;49026;52.600;4.694;2023-03-14T08:11:38;99344.53;;;4.56;88.23
62725;BME280;49026;52.600;4.694;2023-03-14T08:14:03;99351.09;;;4.65;88.03
62725;BME280;49026;52.600;4.694;2023-03-14T08:16:28;99359.56;;;4.70;87.91
62725;BME280;49026;52.600;4.694;2023-03-14T08:18:53;99370.66;;;4.75;87.87
62725;BME280;49026;52.600;4.694;2023-03-14T08:21:19;99375.72;;;4.78;87.79
62725;BME280;49026;52.600;4.694;2023-03-14T08:23:44;99391.34;;;4.78;87.85
62725;BME280;49026;52.600;4.694;2023-03-14T08:26:09;99408.13;;;4.71;87.74
62725;BME280;49026;52.600;4.694;2023-03-14T08:28:35;99418.81;;;4.63;87.58
62725;BME280;49026;52.600;4.694;2023-03-14T08:31:00;99440.31;;;4.45;86.89
62725;BME280;49026;52.600;4.694;2023-03-14T08:33:27;99455.34;;;4.13;86.38
62725;BME280;49026;52.600;4.694;2023-03-14T08:35:55;99463.97;;;3.90;86.88
62725;BME280;49026;52.600;4.694;2023-03-14T08:38:23;99465.34;;;3.75;87.89
62725;BME280;49026;52.600;4.694;2023-03-14T08:40:48;99473.19;;;3.74;87.47
62725;BME280;49026;52.600;4.694;2023-03-14T08:43:15;99486.84;;;3.79;87.26
62725;BME280;49026;52.600;4.694;2023-03-14T08:45:43;99489.22;;;3.86;87.95
62725;BME280;49026;52.600;4.694;2023-03-14T08:48:08;99498.44;;;3.95;87.33
62725;BME280;49026;52.600;4.694;2023-03-14T08:50:33;99511.06;;;4.06;87.51
62725;BME280;49026;52.600;4.694;2023-03-14T08:52:58;99523.78;;;4.14;87.28
62725;BME280;49026;52.600;4.694;2023-03-14T08:55:25;99537.91;;;4.06;86.35
62725;BME280;49026;52.600;4.694;2023-03-14T08:57:52;99544.53;;;3.90;85.93
62725;BME280;49026;52.600;4.694;2023-03-14T09:00:18;99550.09;;;3.79;86.39
62725;BME280;49026;52.600;4.694;2023-03-14T09:02:43;99558.72;;;3.80;87.36
62725;BME280;49026;52.600;4.694;2023-03-14T09:05:19;99572.28;;;3.89;87.03
62725;BME280;49026;52.600;4.694;2023-03-14T09:07:46;99583.88;;;4.06;86.93
62725;BME280;49026;52.600;4.694;2023-03-14T09:10:14;99598.31;;;4.15;86.54
62725;BME280;49026;52.600;4.694;2023-03-14T09:12:42;99606.88;;;4.17;86.63
62725;BME280;49026;52.600;4.694;2023-03-14T09:15:08;99623.31;;;4.17;86.44
62725;BME280;49026;52.600;4.694;2023-03-14T09:17:33;99630.97;;;4.22;87.01
62725;BME280;49026;52.600;4.694;2023-03-14T09:19:59;99638.63;;;4.26;86.91
62725;BME280;49026;52.600;4.694;2023-03-14T09:22:26;99641.97;;;4.30;87.37
62725;BME280;49026;52.600;4.694;2023-03-14T09:24:51;99658.38;;;4.32;87.17
62725;BME280;49026;52.600;4.694;2023-03-14T09:27:17;99660.19;;;4.30;87.26
62725;BME280;49026;52.600;4.694;2023-03-14T09:29:42;99668.88;;;4.29;87.75
62725;BME280;49026;52.600;4.694;2023-03-14T09:32:07;99683.00;;;4.22;87.30
62725;BME280;49026;52.600;4.694;2023-03-14T09:34:35;99690.94;;;4.17;87.28
62725;BME280;49026;52.600;4.694;2023-03-14T09:37:03;99697.00;;;4.18;87.74
62725;BME280;49026;52.600;4.694;2023-03-14T09:39:30;99701.06;;;4.26;87.94
62725;BME280;49026;52.600;4.694;2023-03-14T09:41:57;99712.00;;;4.36;87.96
62725;BME280;49026;52.600;4.694;2023-03-14T09:44:30;99706.72;;;4.39;87.69
62725;BME280;49026;52.600;4.694;2023-03-14T09:47:03;99738.84;;;4.37;87.66
62725;BME280;49026;52.600;4.694;2023-03-14T09:49:34;99742.91;;;4.45;88.26
62725;BME280;49026;52.600;4.694;2023-03-14T09:52:15;99733.91;;;4.56;88.58
62725;BME280;49026;52.600;4.694;2023-03-14T09:54:46;99754.72;;;4.56;88.41
62725;BME280;49026;52.600;4.694;2023-03-14T09:57:15;99762.19;;;4.67;88.21
62725;BME280;49026;52.600;4.694;2023-03-14T09:59:44;99756.91;;;5.44;87.51
62725;BME280;49026;52.600;4.694;2023-03-14T10:02:34;99781.00;;;5.98;86.68
62725;BME280;49026;52.600;4.694;2023-03-14T10:05:00;99769.94;;;6.37;85.52
62725;BME280;49026;52.600;4.694;2023-03-14T10:07:31;99798.69;;;6.57;83.66
62725;BME280;49026;52.600;4.694;2023-03-14T10:09:57;99796.31;;;6.73;84.89
62725;BME280;49026;52.600;4.694;2023-03-14T10:12:34;99812.84;;;6.94;83.80
62725;BME280;49026;52.600;4.694;2023-03-14T10:15:07;99814.03;;;7.08;83.31
62725;BME280;49026;52.600;4.694;2023-03-14T10:17:44;99824.66;;;7.25;84.62
62725;BME280;49026;52.600;4.694;2023-03-14T10:20:36;99838.38;;;7.30;83.51
62725;BME280;49026;52.600;4.694;2023-03-14T10:23:07;99844.63;;;7.26;84.70
62725;BME280;49026;52.600;4.694;2023-03-14T10:26:00;99865.00;;;7.18;85.66
62725;BME280;49026;52.600;4.694;2023-03-14T10:30:55;99878.34;;;6.67;89.03
62725;BME280;49026;52.600;4.694;2023-03-14T10:35:59;99905.13;;;7.37;87.95
62725;BME280;49026;52.600;4.694;2023-03-14T10:38:34;99908.13;;;7.69;86.50
62725;BME280;49026;52.600;4.694;2023-03-14T10:41:00;99918.38;;;7.94;81.88
62725;BME280;49026;52.600;4.694;2023-03-14T10:43:33;99920.84;;;7.78;80.62
62725;BME280;49026;52.600;4.694;2023-03-14T10:46:10;99937.69;;;7.71;84.74
62725;BME280;49026;52.600;4.694;2023-03-14T10:48:40;99948.13;;;7.71;85.83
62725;BME280;49026;52.600;4.694;2023-03-14T10:53:50;99936.28;;;8.43;83.38
62725;BME280;49026;52.600;4.694;2023-03-14T10:56:21;99980.25;;;8.35;84.41
62725;BME280;49026;52.600;4.694;2023-03-14T10:58:50;99972.91;;;7.83;84.47
62725;BME280;49026;52.600;4.694;2023-03-14T11:03:57;99985.94;;;7.85;84.64
62725;BME280;49026;52.600;4.694;2023-03-14T11:06:32;99992.34;;;7.98;82.81
62725;BME280;49026;52.600;4.694;2023-03-14T11:09:10;100003.84;;;8.14;81.70
62725;BME280;49026;52.600;4.694;2023-03-14T11:11:39;100010.75;;;8.57;82.60
62725;BME280;49026;52.600;4.694;2023-03-14T11:14:27;100017.28;;;8.86;81.15
62725;BME280;49026;52.600;4.694;2023-03-14T11:17:16;100012.19;;;9.02;80.55
62725;BME280;49026;52.600;4.694;2023-03-14T11:20:04;100045.34;;;9.03;79.73
62725;BME280;49026;52.600;4.694;2023-03-14T11:22:55;100037.19;;;9.09;78.83
62725;BME280;49026;52.600;4.694;2023-03-14T11:25:45;100048.22;;;8.78;78.73
62725;BME280;49026;52.600;4.694;2023-03-14T11:28:23;100063.81;;;9.00;78.61
62725;BME280;49026;52.600;4.694;2023-03-14T11:30:52;100071.25;;;8.90;78.31
62725;BME280;49026;52.600;4.694;2023-03-14T11:33:24;100078.53;;;8.83;78.80
62725;BME280;49026;52.600;4.694;2023-03-14T11:38:43;100109.91;;;8.85;78.35
62725;BME280;49026;52.600;4.694;2023-03-14T11:41:16;100103.97;;;9.38;77.68
62725;BME280;49026;52.600;4.694;2023-03-14T11:43:47;100106.91;;;9.69;78.13
62725;BME280;49026;52.600;4.694;2023-03-14T11:46:17;100108.88;;;9.82;77.70
62725;BME280;49026;52.600;4.694;2023-03-14T11:48:56;100130.91;;;9.97;76.82
62725;BME280;49026;52.600;4.694;2023-03-14T11:51:29;100134.59;;;9.93;77.27
62725;BME280;49026;52.600;4.694;2023-03-14T11:56:36;100154.66;;;9.94;76.60
62725;BME280;49026;52.600;4.694;2023-03-14T11:59:09;100149.81;;;9.68;74.41
62725;BME280;49026;52.600;4.694;2023-03-14T12:01:52;100155.31;;;9.44;73.61
62725;BME280;49026;52.600;4.694;2023-03-14T12:07:29;100175.19;;;9.48;73.49
62725;BME280;49026;52.600;4.694;2023-03-14T12:09:59;100179.50;;;9.11;72.28
62725;BME280;49026;52.600;4.694;2023-03-14T12:12:28;100190.00;;;9.30;71.95
62725;BME280;49026;52.600;4.694;2023-03-14T12:14:59;100187.03;;;9.19;72.26
62725;BME280;49026;52.600;4.694;2023-03-14T12:17:34;100200.56;;;9.28;70.52
62725;BME280;49026;52.600;4.694;2023-03-14T12:20:03;100187.88;;;9.38;71.18
62725;BME280;49026;52.600;4.694;2023-03-14T12:22:34;100205.25;;;9.41;71.10
62725;BME280;49026;52.600;4.694;2023-03-14T12:25:15;100218.78;;;9.89;71.61
62725;BME280;49026;52.600;4.694;2023-03-14T12:27:46;100219.06;;;9.63;71.36
62725;BME280;49026;52.600;4.694;2023-03-14T12:30:29;100221.88;;;9.00;68.36
62725;BME280;49026;52.600;4.694;2023-03-14T12:38:29;100232.75;;;8.06;69.24
62725;BME280;49026;52.600;4.694;2023-03-14T12:43:45;100256.31;;;8.72;66.09
62725;BME280;49026;52.600;4.694;2023-03-14T12:46:15;100237.84;;;8.53;68.01
62725;BME280;49026;52.600;4.694;2023-03-14T12:49:08;100255.13;;;9.00;68.10
62725;BME280;49026;52.600;4.694;2023-03-14T12:51:38;100257.44;;;9.26;65.26
62725;BME280;49026;52.600;4.694;2023-03-14T12:54:21;100248.75;;;9.45;63.14
62725;BME280;49026;52.600;4.694;2023-03-14T13:00:00;100270.50;;;9.68;63.27
62725;BME280;49026;52.600;4.694;2023-03-14T13:02:29;100295.06;;;9.46;62.07
62725;BME280;49026;52.600;4.694;2023-03-14T13:05:10;100295.97;;;9.45;63.13
62725;BME280;49026;52.600;4.694;2023-03-14T13:15:27;100309.97;;;9.64;63.36
62725;BME280;49026;52.600;4.694;2023-03-14T13:17:56;100307.28;;;9.66;61.73
62725;BME280;49026;52.600;4.694;2023-03-14T13:20:28;100300.06;;;9.90;63.25
62725;BME280;49026;52.600;4.694;2023-03-14T13:22:57;100317.72;;;9.68;62.78
62725;BME280;49026;52.600;4.694;2023-03-14T13:25:22;100332.94;;;9.18;62.19
62725;BME280;49026;52.600;4.694;2023-03-14T13:27:52;100311.47;;;9.10;62.55
62725;BME280;49026;52.600;4.694;2023-03-14T13:30:19;100338.53;;;9.11;61.38
62725;BME280;49026;52.600;4.694;2023-03-14T13:32:49;100348.69;;;9.18;61.80
62725;BME280;49026;52.600;4.694;2023-03-14T13:35:21;100339.78;;;9.22;61.53
62725;BME280;49026;52.600;4.694;2023-03-14T13:37:46;100354.53;;;9.25;61.21
62725;BME280;49026;52.600;4.694;2023-03-14T13:43:17;100381.34;;;9.52;59.88
62725;BME280;49026;52.600;4.694;2023-03-14T13:45:50;100375.97;;;9.95;61.40
62725;BME280;49026;52.600;4.694;2023-03-14T13:48:16;100380.44;;;10.32;60.39
62725;BME280;49026;52.600;4.694;2023-03-14T13:50:49;100389.34;;;10.47;58.89
62725;BME280;49026;52.600;4.694;2023-03-14T13:53:15;100392.03;;;10.27;60.01
62725;BME280;49026;52.600;4.694;2023-03-14T13:55:40;100410.84;;;9.78;57.80
62725;BME280;49026;52.600;4.694;2023-03-14T13:58:13;100414.56;;;9.11;57.59
62725;BME280;49026;52.600;4.694;2023-03-14T14:01:00;100416.44;;;8.63;57.71
62725;BME280;49026;52.600;4.694;2023-03-14T14:03:27;100431.03;;;8.46;58.71